Eagle Lake, TX (77434)

1:41 PM CDT on September 21, 2014 (GMT -0500)
South Sealy | Change Station
CLOSE
Current Station
Personal Weather Station
Location: Sealy, TX
Elevation: 197 ft
Nearby Weather Stations

Elev 197 ft 29.76 °N, 96.16 °W | Updated 21 seconds ago

Clear
Clear
88.7 °F
Feels Like 92 °F
N
4.0
Wind Variable Wind from ESE
Gusts 4.9 mph

Today
High -- | Low -- °F
--% Chance of Precip.
Yesterday
High -- | Low -- °F
Precip. -- in
7:13 AM 7:23 PM
Waning Crescent, 6% visible
Pressure 30.03 in
Visibility 10.0 miles
Clouds Scattered Clouds 4500 ft
Heat Index 92 °F
Dew Point 68 °F
Humidity 50%
Rainfall 0.00 in
Snow Depth Not available.
UV 8 out of 12
Pollen 9.70 out of 12
Air Quality Not available.
Flu Activity Not available.
METAR KARM 211835Z AUTO 06009G16KT 10SM SCT045 31/21 A3003 RMK AO2 T03130206

More Conditions Fewer Conditions

Pressure 30.03 in
Visibility 10.0 miles
Clouds Scattered Clouds 4500 ft
Heat Index 92 °F
Dew Point 68 °F
Humidity 50%
Rainfall 0.00 in
Snow Depth Not available.
UV 8 out of 12
Pollen 9.70 out of 12
Air Quality Not available.
Flu Activity Not available.
METAR KARM 211835Z AUTO 06009G16KT 10SM SCT045 31/21 A3003 RMK AO2 T03130206

More Conditions Fewer Conditions

10-Day Weather Forecast

Almanac

Astronomy

Sep. 21, 2014 Rise Set
Actual Time 7:13 AM CDT 7:23 PM CDT
Civil Twilight 6:49 AM CDT 7:46 PM CDT
Nautical Twilight 6:21 AM CDT 8:14 PM CDT
Astronomical Twilight 5:53 AM CDT 8:42 PM CDT
Moon 4:56 AM CDT 5:53 PM CDT
Length of Visible Light 12h 57m
Length of Day
12h 09m
Tomorrow will be 1m 45s shorter.
Waning Crescent, 6% of the Moon is Illuminated
Today
Waning Crescent
Sep 24
New
Oct 1
First Quarter
Oct 8
Full
Oct 15
Last Quarter

Today's Extremes

State Highs State Lows

Community

WunderPhotos

Upload Photos

1,755,211 photos uploaded!

WunderBlogs® & News

Nearby

Snow Depth

Station Depth Elevation
No new snow has been reported.

Earthquake Activity

City Distance Mag. Time & Date
No recent earthquake activity has been reported nearby.
Minimum magnitude displayed is 2.5.

Coastal Water Temperatures

Place Temperature
No Stations Reporting

Nearby Weather Stations